sensor_id;sensor_type;location;lat;lon;timestamp;P1;durP1;ratioP1;P2;durP2;ratioP2
30000;SDS011;16845;48.670;9.000;2023-05-18T00:02:09;11.80;;;7.13;;
30000;SDS011;16845;48.670;9.000;2023-05-18T00:04:35;14.85;;;6.63;;
30000;SDS011;16845;48.670;9.000;2023-05-18T00:07:04;13.25;;;7.07;;
30000;SDS011;16845;48.670;9.000;2023-05-18T00:09:32;15.63;;;7.43;;
30000;SDS011;16845;48.670;9.000;2023-05-18T00:12:02;14.95;;;6.82;;
30000;SDS011;16845;48.670;9.000;2023-05-18T00:14:30;12.45;;;7.38;;
30000;SDS011;16845;48.670;9.000;2023-05-18T00:16:57;19.27;;;10.10;;
30000;SDS011;16845;48.670;9.000;2023-05-18T00:19:24;14.65;;;8.27;;
30000;SDS011;16845;48.670;9.000;2023-05-18T00:21:51;12.27;;;6.90;;
30000;SDS011;16845;48.670;9.000;2023-05-18T00:24:19;16.48;;;7.95;;
30000;SDS011;16845;48.670;9.000;2023-05-18T00:26:46;14.15;;;8.25;;
30000;SDS011;16845;48.670;9.000;2023-05-18T00:29:13;18.77;;;9.40;;
30000;SDS011;16845;48.670;9.000;2023-05-18T00:31:40;14.63;;;8.05;;
30000;SDS011;16845;48.670;9.000;2023-05-18T00:34:07;18.52;;;8.27;;
30000;SDS011;16845;48.670;9.000;2023-05-18T00:39:01;19.25;;;8.07;;
30000;SDS011;16845;48.670;9.000;2023-05-18T00:41:30;17.42;;;8.10;;
30000;SDS011;16845;48.670;9.000;2023-05-18T00:43:57;14.63;;;7.68;;
30000;SDS011;16845;48.670;9.000;2023-05-18T00:46:24;13.00;;;7.90;;
30000;SDS011;16845;48.670;9.000;2023-05-18T00:48:52;14.00;;;7.30;;
30000;SDS011;16845;48.670;9.000;2023-05-18T00:51:20;12.93;;;8.00;;
30000;SDS011;16845;48.670;9.000;2023-05-18T00:53:48;11.45;;;7.15;;
30000;SDS011;16845;48.670;9.000;2023-05-18T00:56:15;11.40;;;7.53;;
30000;SDS011;16845;48.670;9.000;2023-05-18T00:58:43;13.90;;;9.05;;
30000;SDS011;16845;48.670;9.000;2023-05-18T01:01:10;21.73;;;9.98;;
30000;SDS011;16845;48.670;9.000;2023-05-18T01:03:36;14.43;;;8.30;;
30000;SDS011;16845;48.670;9.000;2023-05-18T01:06:03;15.45;;;8.23;;
30000;SDS011;16845;48.670;9.000;2023-05-18T01:08:30;15.73;;;9.07;;
30000;SDS011;16845;48.670;9.000;2023-05-18T01:10:59;12.75;;;8.32;;
30000;SDS011;16845;48.670;9.000;2023-05-18T01:13:34;16.95;;;8.38;;
30000;SDS011;16845;48.670;9.000;2023-05-18T01:16:09;14.35;;;7.88;;
30000;SDS011;16845;48.670;9.000;2023-05-18T01:18:40;15.30;;;8.77;;
30000;SDS011;16845;48.670;9.000;2023-05-18T01:21:15;17.08;;;9.13;;
30000;SDS011;16845;48.670;9.000;2023-05-18T01:24:00;16.20;;;8.30;;
30000;SDS011;16845;48.670;9.000;2023-05-18T01:26:37;13.98;;;7.65;;
30000;SDS011;16845;48.670;9.000;2023-05-18T01:29:08;19.10;;;9.13;;
30000;SDS011;16845;48.670;9.000;2023-05-18T01:31:35;15.18;;;8.27;;
30000;SDS011;16845;48.670;9.000;2023-05-18T01:34:02;14.18;;;8.07;;
30000;SDS011;16845;48.670;9.000;2023-05-18T01:36:28;20.80;;;10.53;;
30000;SDS011;16845;48.670;9.000;2023-05-18T01:38:55;15.85;;;8.93;;
30000;SDS011;16845;48.670;9.000;2023-05-18T01:41:22;18.33;;;9.50;;
30000;SDS011;16845;48.670;9.000;2023-05-18T01:43:54;15.52;;;9.07;;
30000;SDS011;16845;48.670;9.000;2023-05-18T01:46:39;15.73;;;7.85;;
30000;SDS011;16845;48.670;9.000;2023-05-18T01:49:12;14.27;;;8.75;;
30000;SDS011;16845;48.670;9.000;2023-05-18T01:51:43;14.90;;;8.25;;
30000;SDS011;16845;48.670;9.000;2023-05-18T01:54:11;12.77;;;8.27;;
30000;SDS011;16845;48.670;9.000;2023-05-18T01:56:41;16.00;;;8.82;;
30000;SDS011;16845;48.670;9.000;2023-05-18T01:59:11;13.98;;;8.77;;
30000;SDS011;16845;48.670;9.000;2023-05-18T02:01:39;15.63;;;8.10;;
30000;SDS011;16845;48.670;9.000;2023-05-18T02:04:06;14.95;;;8.90;;
30000;SDS011;16845;48.670;9.000;2023-05-18T02:06:33;13.80;;;8.15;;
30000;SDS011;16845;48.670;9.000;2023-05-18T02:09:00;15.35;;;8.98;;
30000;SDS011;16845;48.670;9.000;2023-05-18T02:11:26;12.10;;;7.93;;
30000;SDS011;16845;48.670;9.000;2023-05-18T02:13:53;14.02;;;7.90;;
30000;SDS011;16845;48.670;9.000;2023-05-18T02:16:20;13.10;;;8.47;;
30000;SDS011;16845;48.670;9.000;2023-05-18T02:18:47;17.83;;;9.10;;
30000;SDS011;16845;48.670;9.000;2023-05-18T02:21:14;19.47;;;9.23;;
30000;SDS011;16845;48.670;9.000;2023-05-18T02:23:40;19.25;;;8.68;;
30000;SDS011;16845;48.670;9.000;2023-05-18T02:26:07;13.93;;;7.50;;
30000;SDS011;16845;48.670;9.000;2023-05-18T02:28:33;17.52;;;9.23;;
30000;SDS011;16845;48.670;9.000;2023-05-18T02:31:03;15.10;;;8.33;;
30000;SDS011;16845;48.670;9.000;2023-05-18T02:33:32;15.57;;;7.82;;
30000;SDS011;16845;48.670;9.000;2023-05-18T02:35:58;13.20;;;8.25;;
30000;SDS011;16845;48.670;9.000;2023-05-18T02:38:25;18.23;;;8.98;;
30000;SDS011;16845;48.670;9.000;2023-05-18T02:40:51;20.90;;;8.70;;
30000;SDS011;16845;48.670;9.000;2023-05-18T02:43:18;12.18;;;6.78;;
30000;SDS011;16845;48.670;9.000;2023-05-18T02:45:44;14.20;;;9.27;;
30000;SDS011;16845;48.670;9.000;2023-05-18T02:48:11;14.55;;;8.85;;
30000;SDS011;16845;48.670;9.000;2023-05-18T02:50:39;16.83;;;8.73;;
30000;SDS011;16845;48.670;9.000;2023-05-18T02:53:05;13.52;;;8.23;;
30000;SDS011;16845;48.670;9.000;2023-05-18T02:55:32;22.77;;;9.27;;
30000;SDS011;16845;48.670;9.000;2023-05-18T02:57:58;19.45;;;8.57;;
30000;SDS011;16845;48.670;9.000;2023-05-18T03:00:25;13.70;;;8.27;;
30000;SDS011;16845;48.670;9.000;2023-05-18T03:02:51;12.93;;;8.52;;
30000;SDS011;16845;48.670;9.000;2023-05-18T03:05:18;16.23;;;8.23;;
30000;SDS011;16845;48.670;9.000;2023-05-18T03:07:46;13.90;;;8.37;;
30000;SDS011;16845;48.670;9.000;2023-05-18T03:10:12;18.13;;;8.60;;
30000;SDS011;16845;48.670;9.000;2023-05-18T03:12:39;12.35;;;6.45;;
30000;SDS011;16845;48.670;9.000;2023-05-18T03:15:06;13.65;;;9.27;;
30000;SDS011;16845;48.670;9.000;2023-05-18T03:17:33;16.25;;;8.15;;
30000;SDS011;16845;48.670;9.000;2023-05-18T03:19:59;11.40;;;8.37;;
30000;SDS011;16845;48.670;9.000;2023-05-18T03:22:26;14.70;;;8.50;;
30000;SDS011;16845;48.670;9.000;2023-05-18T03:24:54;17.63;;;8.57;;
30000;SDS011;16845;48.670;9.000;2023-05-18T03:27:20;20.27;;;10.68;;
30000;SDS011;16845;48.670;9.000;2023-05-18T03:29:47;20.77;;;9.93;;
30000;SDS011;16845;48.670;9.000;2023-05-18T03:32:13;13.73;;;8.47;;
30000;SDS011;16845;48.670;9.000;2023-05-18T03:34:40;17.30;;;8.80;;
30000;SDS011;16845;48.670;9.000;2023-05-18T03:37:06;16.10;;;8.43;;
30000;SDS011;16845;48.670;9.000;2023-05-18T03:39:33;17.20;;;8.82;;
30000;SDS011;16845;48.670;9.000;2023-05-18T03:42:01;18.90;;;9.85;;
30000;SDS011;16845;48.670;9.000;2023-05-18T03:44:27;15.15;;;8.75;;
30000;SDS011;16845;48.670;9.000;2023-05-18T03:46:54;15.88;;;8.65;;
30000;SDS011;16845;48.670;9.000;2023-05-18T03:49:20;12.07;;;8.50;;
30000;SDS011;16845;48.670;9.000;2023-05-18T03:51:47;16.47;;;8.97;;
30000;SDS011;16845;48.670;9.000;2023-05-18T03:54:13;14.63;;;8.10;;
30000;SDS011;16845;48.670;9.000;2023-05-18T03:56:40;16.63;;;8.82;;
30000;SDS011;16845;48.670;9.000;2023-05-18T03:59:08;17.13;;;8.30;;
30000;SDS011;16845;48.670;9.000;2023-05-18T04:01:34;14.60;;;8.50;;
30000;SDS011;16845;48.670;9.000;2023-05-18T04:04:01;16.43;;;8.33;;
30000;SDS011;16845;48.670;9.000;2023-05-18T04:06:27;15.30;;;8.63;;
30000;SDS011;16845;48.670;9.000;2023-05-18T04:08:54;17.58;;;8.98;;
30000;SDS011;16845;48.670;9.000;2023-05-18T04:11:20;13.82;;;8.52;;
30000;SDS011;16845;48.670;9.000;2023-05-18T04:13:47;17.47;;;8.80;;
30000;SDS011;16845;48.670;9.000;2023-05-18T04:16:15;16.55;;;8.77;;
30000;SDS011;16845;48.670;9.000;2023-05-18T04:18:42;14.10;;;9.55;;
30000;SDS011;16845;48.670;9.000;2023-05-18T04:21:08;13.47;;;9.57;;
30000;SDS011;16845;48.670;9.000;2023-05-18T04:23:35;15.80;;;8.80;;
30000;SDS011;16845;48.670;9.000;2023-05-18T04:26:01;15.50;;;8.82;;
30000;SDS011;16845;48.670;9.000;2023-05-18T04:28:28;15.43;;;9.00;;
30000;SDS011;16845;48.670;9.000;2023-05-18T04:30:54;12.07;;;8.63;;
30000;SDS011;16845;48.670;9.000;2023-05-18T04:33:22;16.73;;;7.43;;
30000;SDS011;16845;48.670;9.000;2023-05-18T04:35:49;17.00;;;8.50;;
30000;SDS011;16845;48.670;9.000;2023-05-18T04:38:16;12.18;;;7.70;;
30000;SDS011;16845;48.670;9.000;2023-05-18T04:40:42;15.98;;;8.30;;
30000;SDS011;16845;48.670;9.000;2023-05-18T04:43:09;15.23;;;7.70;;
30000;SDS011;16845;48.670;9.000;2023-05-18T04:45:35;15.30;;;8.20;;
30000;SDS011;16845;48.670;9.000;2023-05-18T04:48:02;12.43;;;7.37;;
30000;SDS011;16845;48.670;9.000;2023-05-18T04:50:30;14.00;;;8.53;;
30000;SDS011;16845;48.670;9.000;2023-05-18T04:52:56;15.73;;;7.50;;
30000;SDS011;16845;48.670;9.000;2023-05-18T04:55:23;17.73;;;7.67;;
30000;SDS011;16845;48.670;9.000;2023-05-18T04:57:50;15.85;;;8.23;;
30000;SDS011;16845;48.670;9.000;2023-05-18T05:00:17;15.52;;;7.85;;
30000;SDS011;16845;48.670;9.000;2023-05-18T05:02:44;12.60;;;7.18;;
30000;SDS011;16845;48.670;9.000;2023-05-18T05:05:10;11.37;;;7.57;;
30000;SDS011;16845;48.670;9.000;2023-05-18T05:07:38;16.45;;;7.07;;
30000;SDS011;16845;48.670;9.000;2023-05-18T05:10:05;12.75;;;8.35;;
30000;SDS011;16845;48.670;9.000;2023-05-18T05:12:35;17.67;;;7.95;;
30000;SDS011;16845;48.670;9.000;2023-05-18T05:15:03;11.85;;;6.65;;
30000;SDS011;16845;48.670;9.000;2023-05-18T05:17:32;15.95;;;7.28;;
30000;SDS011;16845;48.670;9.000;2023-05-18T05:19:58;16.95;;;6.70;;
30000;SDS011;16845;48.670;9.000;2023-05-18T05:22:25;10.68;;;6.30;;
30000;SDS011;16845;48.670;9.000;2023-05-18T05:24:53;9.60;;;5.75;;
30000;SDS011;16845;48.670;9.000;2023-05-18T05:27:19;13.88;;;6.88;;
30000;SDS011;16845;48.670;9.000;2023-05-18T05:29:46;14.00;;;6.53;;
30000;SDS011;16845;48.670;9.000;2023-05-18T05:32:12;11.05;;;6.80;;
30000;SDS011;16845;48.670;9.000;2023-05-18T05:34:39;15.93;;;6.78;;
30000;SDS011;16845;48.670;9.000;2023-05-18T05:37:05;11.75;;;6.47;;
30000;SDS011;16845;48.670;9.000;2023-05-18T05:39:32;14.03;;;6.97;;
30000;SDS011;16845;48.670;9.000;2023-05-18T05:42:00;14.45;;;6.05;;
30000;SDS011;16845;48.670;9.000;2023-05-18T05:44:26;13.98;;;6.45;;
30000;SDS011;16845;48.670;9.000;2023-05-18T05:46:53;9.57;;;6.70;;
30000;SDS011;16845;48.670;9.000;2023-05-18T05:49:19;10.20;;;5.80;;
30000;SDS011;16845;48.670;9.000;2023-05-18T05:51:46;15.50;;;5.72;;
30000;SDS011;16845;48.670;9.000;2023-05-18T05:54:13;9.00;;;5.07;;
30000;SDS011;16845;48.670;9.000;2023-05-18T05:56:39;7.93;;;4.65;;
30000;SDS011;16845;48.670;9.000;2023-05-18T05:59:07;12.65;;;5.15;;
30000;SDS011;16845;48.670;9.000;2023-05-18T06:01:34;14.88;;;5.18;;
30000;SDS011;16845;48.670;9.000;2023-05-18T06:04:00;11.05;;;5.22;;
30000;SDS011;16845;48.670;9.000;2023-05-18T06:06:27;13.77;;;4.93;;
30000;SDS011;16845;48.670;9.000;2023-05-18T06:08:54;9.52;;;4.78;;
30000;SDS011;16845;48.670;9.000;2023-05-18T06:11:20;12.18;;;5.03;;
30000;SDS011;16845;48.670;9.000;2023-05-18T06:13:47;9.93;;;4.45;;
30000;SDS011;16845;48.670;9.000;2023-05-18T06:16:15;12.50;;;5.15;;
30000;SDS011;16845;48.670;9.000;2023-05-18T06:18:41;11.13;;;4.32;;
30000;SDS011;16845;48.670;9.000;2023-05-18T06:21:08;9.38;;;5.47;;
30000;SDS011;16845;48.670;9.000;2023-05-18T06:23:34;8.20;;;4.20;;
30000;SDS011;16845;48.670;9.000;2023-05-18T06:26:01;10.70;;;4.65;;
30000;SDS011;16845;48.670;9.000;2023-05-18T06:28:28;10.10;;;4.18;;
30000;SDS011;16845;48.670;9.000;2023-05-18T06:30:54;15.10;;;4.47;;
30000;SDS011;16845;48.670;9.000;2023-05-18T06:33:22;15.15;;;4.68;;
30000;SDS011;16845;48.670;9.000;2023-05-18T06:35:49;14.45;;;4.32;;
30000;SDS011;16845;48.670;9.000;2023-05-18T06:38:16;15.32;;;4.97;;
30000;SDS011;16845;48.670;9.000;2023-05-18T06:40:42;15.63;;;5.63;;
30000;SDS011;16845;48.670;9.000;2023-05-18T06:43:09;12.52;;;5.15;;
30000;SDS011;16845;48.670;9.000;2023-05-18T06:45:35;12.90;;;3.80;;
30000;SDS011;16845;48.670;9.000;2023-05-18T06:48:03;9.05;;;4.43;;
30000;SDS011;16845;48.670;9.000;2023-05-18T06:50:32;14.02;;;5.47;;
30000;SDS011;16845;48.670;9.000;2023-05-18T06:52:58;8.95;;;3.95;;
30000;SDS011;16845;48.670;9.000;2023-05-18T06:55:25;12.68;;;4.13;;
30000;SDS011;16845;48.670;9.000;2023-05-18T06:57:52;11.90;;;4.45;;
30000;SDS011;16845;48.670;9.000;2023-05-18T07:00:18;8.73;;;4.05;;
30000;SDS011;16845;48.670;9.000;2023-05-18T07:02:45;9.38;;;4.22;;
30000;SDS011;16845;48.670;9.000;2023-05-18T07:05:12;9.43;;;4.32;;
30000;SDS011;16845;48.670;9.000;2023-05-18T07:07:39;10.70;;;4.38;;
30000;SDS011;16845;48.670;9.000;2023-05-18T07:10:06;8.45;;;4.32;;
30000;SDS011;16845;48.670;9.000;2023-05-18T07:15:00;7.05;;;3.97;;
30000;SDS011;16845;48.670;9.000;2023-05-18T07:17:26;12.93;;;5.18;;
30000;SDS011;16845;48.670;9.000;2023-05-18T07:19:53;8.77;;;3.53;;
30000;SDS011;16845;48.670;9.000;2023-05-18T07:22:19;13.93;;;4.57;;
30000;SDS011;16845;48.670;9.000;2023-05-18T07:24:47;11.23;;;3.75;;
30000;SDS011;16845;48.670;9.000;2023-05-18T07:27:14;13.52;;;4.25;;
30000;SDS011;16845;48.670;9.000;2023-05-18T07:29:40;11.20;;;3.92;;
30000;SDS011;16845;48.670;9.000;2023-05-18T07:32:07;12.73;;;5.53;;
30000;SDS011;16845;48.670;9.000;2023-05-18T07:34:33;10.27;;;3.90;;
30000;SDS011;16845;48.670;9.000;2023-05-18T07:37:00;13.88;;;3.55;;
30000;SDS011;16845;48.670;9.000;2023-05-18T07:39:26;8.48;;;3.58;;
30000;SDS011;16845;48.670;9.000;2023-05-18T07:41:54;9.88;;;4.25;;
30000;SDS011;16845;48.670;9.000;2023-05-18T07:44:21;9.93;;;3.75;;
30000;SDS011;16845;48.670;9.000;2023-05-18T07:46:48;10.33;;;4.67;;
30000;SDS011;16845;48.670;9.000;2023-05-18T07:49:14;9.60;;;4.23;;
30000;SDS011;16845;48.670;9.000;2023-05-18T07:51:41;12.95;;;4.45;;
30000;SDS011;16845;48.670;9.000;2023-05-18T07:54:07;6.97;;;4.22;;
30000;SDS011;16845;48.670;9.000;2023-05-18T07:56:34;8.25;;;4.15;;
30000;SDS011;16845;48.670;9.000;2023-05-18T07:59:02;14.50;;;3.80;;
30000;SDS011;16845;48.670;9.000;2023-05-18T08:01:28;8.95;;;3.55;;
30000;SDS011;16845;48.670;9.000;2023-05-18T08:03:55;11.48;;;4.20;;
30000;SDS011;16845;48.670;9.000;2023-05-18T08:06:22;7.40;;;3.92;;
30000;SDS011;16845;48.670;9.000;2023-05-18T08:08:48;13.43;;;4.57;;
30000;SDS011;16845;48.670;9.000;2023-05-18T08:11:15;9.90;;;4.30;;
30000;SDS011;16845;48.670;9.000;2023-05-18T08:13:41;15.70;;;4.45;;
30000;SDS011;16845;48.670;9.000;2023-05-18T08:16:09;8.18;;;3.78;;
30000;SDS011;16845;48.670;9.000;2023-05-18T08:18:38;8.07;;;3.70;;
30000;SDS011;16845;48.670;9.000;2023-05-18T08:21:04;12.20;;;4.47;;
30000;SDS011;16845;48.670;9.000;2023-05-18T08:23:31;8.38;;;3.78;;
30000;SDS011;16845;48.670;9.000;2023-05-18T08:25:57;10.60;;;3.97;;
30000;SDS011;16845;48.670;9.000;2023-05-18T08:28:24;9.57;;;4.38;;
30000;SDS011;16845;48.670;9.000;2023-05-18T08:30:51;12.20;;;3.90;;
30000;SDS011;16845;48.670;9.000;2023-05-18T08:33:18;8.32;;;4.40;;
30000;SDS011;16845;48.670;9.000;2023-05-18T08:35:45;8.35;;;3.92;;
30000;SDS011;16845;48.670;9.000;2023-05-18T08:38:12;8.98;;;4.03;;
30000;SDS011;16845;48.670;9.000;2023-05-18T08:40:40;7.70;;;4.20;;
30000;SDS011;16845;48.670;9.000;2023-05-18T08:43:10;6.82;;;3.38;;
30000;SDS011;16845;48.670;9.000;2023-05-18T08:45:43;9.27;;;4.20;;
30000;SDS011;16845;48.670;9.000;2023-05-18T08:48:13;10.75;;;3.88;;
30000;SDS011;16845;48.670;9.000;2023-05-18T08:50:43;9.88;;;3.80;;
30000;SDS011;16845;48.670;9.000;2023-05-18T08:53:09;6.93;;;3.78;;
30000;SDS011;16845;48.670;9.000;2023-05-18T08:55:36;10.02;;;3.85;;
30000;SDS011;16845;48.670;9.000;2023-05-18T08:58:05;8.63;;;3.85;;
30000;SDS011;16845;48.670;9.000;2023-05-18T09:00:33;11.88;;;4.45;;
30000;SDS011;16845;48.670;9.000;2023-05-18T09:05:27;10.68;;;4.25;;
30000;SDS011;16845;48.670;9.000;2023-05-18T09:07:55;8.15;;;3.95;;
30000;SDS011;16845;48.670;9.000;2023-05-18T09:10:22;9.93;;;3.78;;
30000;SDS011;16845;48.670;9.000;2023-05-18T09:12:50;8.65;;;4.18;;
30000;SDS011;16845;48.670;9.000;2023-05-18T09:15:17;11.18;;;3.90;;
30000;SDS011;16845;48.670;9.000;2023-05-18T09:17:44;11.83;;;4.50;;
30000;SDS011;16845;48.670;9.000;2023-05-18T09:20:10;7.13;;;3.20;;
30000;SDS011;16845;48.670;9.000;2023-05-18T09:22:37;9.30;;;3.40;;
30000;SDS011;16845;48.670;9.000;2023-05-18T09:25:05;10.07;;;3.85;;
30000;SDS011;16845;48.670;9.000;2023-05-18T09:27:34;10.63;;;4.15;;
30000;SDS011;16845;48.670;9.000;2023-05-18T09:30:00;7.20;;;4.10;;
30000;SDS011;16845;48.670;9.000;2023-05-18T09:32:27;9.23;;;4.40;;
30000;SDS011;16845;48.670;9.000;2023-05-18T09:34:54;8.23;;;4.17;;
30000;SDS011;16845;48.670;9.000;2023-05-18T09:37:21;12.25;;;4.50;;
30000;SDS011;16845;48.670;9.000;2023-05-18T09:39:56;6.00;;;3.42;;
30000;SDS011;16845;48.670;9.000;2023-05-18T09:42:27;11.38;;;3.60;;
30000;SDS011;16845;48.670;9.000;2023-05-18T09:45:00;10.40;;;3.92;;
30000;SDS011;16845;48.670;9.000;2023-05-18T09:47:26;7.67;;;3.10;;
30000;SDS011;16845;48.670;9.000;2023-05-18T09:49:54;8.05;;;3.83;;
30000;SDS011;16845;48.670;9.000;2023-05-18T09:52:21;8.00;;;3.35;;
30000;SDS011;16845;48.670;9.000;2023-05-18T09:54:52;9.05;;;3.28;;
30000;SDS011;16845;48.670;9.000;2023-05-18T09:57:23;7.28;;;3.70;;
30000;SDS011;16845;48.670;9.000;2023-05-18T09:59:55;10.68;;;4.25;;
30000;SDS011;16845;48.670;9.000;2023-05-18T10:02:23;8.70;;;3.55;;
30000;SDS011;16845;48.670;9.000;2023-05-18T10:04:50;5.57;;;3.60;;
30000;SDS011;16845;48.670;9.000;2023-05-18T10:07:17;11.95;;;3.40;;
30000;SDS011;16845;48.670;9.000;2023-05-18T10:09:44;9.23;;;3.50;;
30000;SDS011;16845;48.670;9.000;2023-05-18T10:12:12;9.07;;;3.78;;
30000;SDS011;16845;48.670;9.000;2023-05-18T10:14:40;8.90;;;3.50;;
30000;SDS011;16845;48.670;9.000;2023-05-18T10:19:41;8.60;;;3.35;;
30000;SDS011;16845;48.670;9.000;2023-05-18T10:22:08;9.75;;;3.65;;
30000;SDS011;16845;48.670;9.000;2023-05-18T10:24:37;9.18;;;3.50;;
30000;SDS011;16845;48.670;9.000;2023-05-18T10:27:05;6.20;;;3.22;;
30000;SDS011;16845;48.670;9.000;2023-05-18T10:29:34;14.85;;;3.95;;
30000;SDS011;16845;48.670;9.000;2023-05-18T10:32:02;7.80;;;3.63;;
30000;SDS011;16845;48.670;9.000;2023-05-18T10:34:34;9.55;;;3.67;;
30000;SDS011;16845;48.670;9.000;2023-05-18T10:37:01;5.75;;;3.45;;
30000;SDS011;16845;48.670;9.000;2023-05-18T10:39:31;8.30;;;3.30;;
30000;SDS011;16845;48.670;9.000;2023-05-18T10:42:01;10.70;;;3.85;;
30000;SDS011;16845;48.670;9.000;2023-05-18T10:44:29;9.10;;;3.47;;
30000;SDS011;16845;48.670;9.000;2023-05-18T10:46:56;6.88;;;3.50;;
30000;SDS011;16845;48.670;9.000;2023-05-18T10:49:24;12.68;;;3.58;;
30000;SDS011;16845;48.670;9.000;2023-05-18T10:51:52;7.47;;;3.47;;
30000;SDS011;16845;48.670;9.000;2023-05-18T10:54:19;9.77;;;3.25;;
30000;SDS011;16845;48.670;9.000;2023-05-18T10:56:47;7.43;;;2.67;;
30000;SDS011;16845;48.670;9.000;2023-05-18T10:59:16;8.80;;;3.53;;
30000;SDS011;16845;48.670;9.000;2023-05-18T11:01:43;8.20;;;3.25;;
30000;SDS011;16845;48.670;9.000;2023-05-18T11:04:12;8.38;;;3.10;;
30000;SDS011;16845;48.670;9.000;2023-05-18T11:06:39;11.30;;;3.33;;
30000;SDS011;16845;48.670;9.000;2023-05-18T11:09:07;6.35;;;3.03;;
30000;SDS011;16845;48.670;9.000;2023-05-18T11:11:50;9.73;;;3.38;;
30000;SDS011;16845;48.670;9.000;2023-05-18T11:14:22;7.32;;;3.58;;
30000;SDS011;16845;48.670;9.000;2023-05-18T11:16:50;10.13;;;3.42;;
30000;SDS011;16845;48.670;9.000;2023-05-18T11:19:17;9.93;;;3.53;;
30000;SDS011;16845;48.670;9.000;2023-05-18T11:21:51;8.35;;;3.50;;
30000;SDS011;16845;48.670;9.000;2023-05-18T11:24:25;12.90;;;3.88;;
30000;SDS011;16845;48.670;9.000;2023-05-18T11:26:55;10.75;;;3.33;;
30000;SDS011;16845;48.670;9.000;2023-05-18T11:29:28;9.82;;;3.47;;
30000;SDS011;16845;48.670;9.000;2023-05-18T11:31:57;9.45;;;2.83;;
30000;SDS011;16845;48.670;9.000;2023-05-18T11:37:05;7.03;;;2.97;;
30000;SDS011;16845;48.670;9.000;2023-05-18T11:39:33;8.13;;;3.33;;
30000;SDS011;16845;48.670;9.000;2023-05-18T11:42:06;9.35;;;3.28;;
30000;SDS011;16845;48.670;9.000;2023-05-18T11:44:33;8.07;;;3.25;;
30000;SDS011;16845;48.670;9.000;2023-05-18T11:47:00;8.80;;;3.53;;
30000;SDS011;16845;48.670;9.000;2023-05-18T11:49:31;9.10;;;3.33;;
30000;SDS011;16845;48.670;9.000;2023-05-18T11:52:03;8.63;;;3.40;;
30000;SDS011;16845;48.670;9.000;2023-05-18T11:54:38;13.77;;;3.90;;
30000;SDS011;16845;48.670;9.000;2023-05-18T11:57:07;8.25;;;3.83;;
30000;SDS011;16845;48.670;9.000;2023-05-18T11:59:36;9.02;;;3.13;;
30000;SDS011;16845;48.670;9.000;2023-05-18T12:02:04;6.88;;;3.20;;
30000;SDS011;16845;48.670;9.000;2023-05-18T12:04:32;9.32;;;3.13;;
30000;SDS011;16845;48.670;9.000;2023-05-18T12:06:59;6.35;;;3.22;;
30000;SDS011;16845;48.670;9.000;2023-05-18T12:09:30;9.10;;;3.03;;
30000;SDS011;16845;48.670;9.000;2023-05-18T12:11:59;8.77;;;3.08;;
30000;SDS011;16845;48.670;9.000;2023-05-18T12:14:26;9.27;;;2.80;;
30000;SDS011;16845;48.670;9.000;2023-05-18T12:16:55;9.95;;;2.80;;
30000;SDS011;16845;48.670;9.000;2023-05-18T12:19:23;8.18;;;4.00;;
30000;SDS011;16845;48.670;9.000;2023-05-18T12:21:49;8.05;;;2.55;;
30000;SDS011;16845;48.670;9.000;2023-05-18T12:24:16;8.98;;;3.20;;
30000;SDS011;16845;48.670;9.000;2023-05-18T12:26:42;15.80;;;2.90;;
30000;SDS011;16845;48.670;9.000;2023-05-18T12:29:11;7.18;;;2.95;;
30000;SDS011;16845;48.670;9.000;2023-05-18T12:31:38;7.57;;;2.97;;
30000;SDS011;16845;48.670;9.000;2023-05-18T12:34:07;6.63;;;2.65;;
30000;SDS011;16845;48.670;9.000;2023-05-18T12:36:34;5.15;;;2.10;;
30000;SDS011;16845;48.670;9.000;2023-05-18T12:39:06;9.30;;;3.00;;
30000;SDS011;16845;48.670;9.000;2023-05-18T12:41:32;13.73;;;3.57;;
30000;SDS011;16845;48.670;9.000;2023-05-18T12:43:59;8.40;;;3.23;;
30000;SDS011;16845;48.670;9.000;2023-05-18T12:46:27;7.00;;;2.50;;
30000;SDS011;16845;48.670;9.000;2023-05-18T12:48:57;7.15;;;2.75;;
30000;SDS011;16845;48.670;9.000;2023-05-18T12:51:24;6.82;;;2.53;;
30000;SDS011;16845;48.670;9.000;2023-05-18T12:53:51;5.20;;;2.63;;
30000;SDS011;16845;48.670;9.000;2023-05-18T12:56:18;5.10;;;2.73;;
30000;SDS011;16845;48.670;9.000;2023-05-18T12:58:54;9.70;;;3.43;;
30000;SDS011;16845;48.670;9.000;2023-05-18T13:01:21;4.90;;;1.70;;
30000;SDS011;16845;48.670;9.000;2023-05-18T13:03:53;5.45;;;2.63;;
30000;SDS011;16845;48.670;9.000;2023-05-18T13:06:20;5.43;;;2.53;;
30000;SDS011;16845;48.670;9.000;2023-05-18T13:08:47;7.33;;;2.63;;
30000;SDS011;16845;48.670;9.000;2023-05-18T13:11:13;5.85;;;2.50;;
30000;SDS011;16845;48.670;9.000;2023-05-18T13:16:25;8.55;;;3.10;;
30000;SDS011;16845;48.670;9.000;2023-05-18T13:18:57;6.28;;;2.58;;
30000;SDS011;16845;48.670;9.000;2023-05-18T13:21:24;6.47;;;2.80;;
30000;SDS011;16845;48.670;9.000;2023-05-18T13:23:51;7.65;;;2.60;;
30000;SDS011;16845;48.670;9.000;2023-05-18T13:26:19;6.80;;;3.38;;
30000;SDS011;16845;48.670;9.000;2023-05-18T13:28:48;6.63;;;2.70;;
30000;SDS011;16845;48.670;9.000;2023-05-18T13:31:15;9.07;;;2.85;;
30000;SDS011;16845;48.670;9.000;2023-05-18T13:33:42;6.07;;;2.40;;
30000;SDS011;16845;48.670;9.000;2023-05-18T13:36:10;7.87;;;2.50;;
30000;SDS011;16845;48.670;9.000;2023-05-18T13:38:36;9.70;;;2.70;;
30000;SDS011;16845;48.670;9.000;2023-05-18T13:41:03;7.35;;;2.65;;
30000;SDS011;16845;48.670;9.000;2023-05-18T13:43:30;8.68;;;4.88;;
30000;SDS011;16845;48.670;9.000;2023-05-18T13:45:57;9.30;;;2.58;;
30000;SDS011;16845;48.670;9.000;2023-05-18T13:48:24;8.20;;;2.50;;
30000;SDS011;16845;48.670;9.000;2023-05-18T13:50:51;6.28;;;2.75;;
30000;SDS011;16845;48.670;9.000;2023-05-18T13:53:19;8.73;;;2.60;;
30000;SDS011;16845;48.670;9.000;2023-05-18T13:55:45;9.63;;;2.67;;
30000;SDS011;16845;48.670;9.000;2023-05-18T13:58:12;10.32;;;2.63;;
30000;SDS011;16845;48.670;9.000;2023-05-18T14:00:38;5.50;;;2.67;;
30000;SDS011;16845;48.670;9.000;2023-05-18T14:03:05;8.40;;;3.00;;
30000;SDS011;16845;48.670;9.000;2023-05-18T14:05:31;9.07;;;2.75;;
30000;SDS011;16845;48.670;9.000;2023-05-18T14:07:58;10.07;;;2.75;;
30000;SDS011;16845;48.670;9.000;2023-05-18T14:10:26;5.40;;;2.93;;
30000;SDS011;16845;48.670;9.000;2023-05-18T14:12:52;5.40;;;2.40;;
30000;SDS011;16845;48.670;9.000;2023-05-18T14:15:19;6.23;;;2.80;;
30000;SDS011;16845;48.670;9.000;2023-05-18T14:17:45;8.80;;;3.05;;
30000;SDS011;16845;48.670;9.000;2023-05-18T14:20:12;12.20;;;2.80;;
30000;SDS011;16845;48.670;9.000;2023-05-18T14:22:39;9.60;;;3.17;;
30000;SDS011;16845;48.670;9.000;2023-05-18T14:25:05;7.03;;;2.53;;
30000;SDS011;16845;48.670;9.000;2023-05-18T14:27:34;10.07;;;3.08;;
30000;SDS011;16845;48.670;9.000;2023-05-18T14:30:00;10.88;;;2.72;;
30000;SDS011;16845;48.670;9.000;2023-05-18T14:32:27;8.03;;;2.87;;
30000;SDS011;16845;48.670;9.000;2023-05-18T14:34:53;9.60;;;3.03;;
30000;SDS011;16845;48.670;9.000;2023-05-18T14:37:20;8.37;;;2.70;;
30000;SDS011;16845;48.670;9.000;2023-05-18T14:39:47;11.25;;;2.70;;
30000;SDS011;16845;48.670;9.000;2023-05-18T14:42:13;10.40;;;3.03;;
30000;SDS011;16845;48.670;9.000;2023-05-18T14:44:41;8.27;;;2.95;;
30000;SDS011;16845;48.670;9.000;2023-05-18T14:47:08;10.23;;;2.35;;
30000;SDS011;16845;48.670;9.000;2023-05-18T14:49:34;7.53;;;2.70;;
30000;SDS011;16845;48.670;9.000;2023-05-18T14:52:01;6.03;;;2.42;;
30000;SDS011;16845;48.670;9.000;2023-05-18T14:54:28;9.52;;;2.80;;
30000;SDS011;16845;48.670;9.000;2023-05-18T14:56:54;6.13;;;2.55;;
30000;SDS011;16845;48.670;9.000;2023-05-18T14:59:21;12.10;;;2.92;;